Time,TemperatureF,DewpointF,PressureIn,WindDirection,WindDirectionDegrees,WindSpeedMPH,WindSpeedGustMPH,Humidity,HourlyPrecipIn,Conditions,Clouds,dailyrainin,SoftwareType,DateUTC
2013-10-02 00:15:00,49.3,46.0,30.21,SW,214,4.0,8.0,89,0.00,,,0.00,weatherlink.com 1.10,2013-10-02 07:15:00,
2013-10-02 00:31:00,47.8,45.0,30.21,SE,133,0.0,2.0,90,0.00,,,0.00,weatherlink.com 1.10,2013-10-02 07:31:00,
2013-10-02 00:45:00,48.0,46.0,30.21,West,265,1.0,2.0,92,0.00,,,0.00,weatherlink.com 1.10,2013-10-02 07:45:00,
2013-10-02 01:00:00,47.9,46.0,30.21,ENE,70,1.0,1.0,91,0.00,,,0.00,weatherlink.com 1.10,2013-10-02 08:00:00,
2013-10-02 01:16:00,48.2,46.0,30.21,SE,128,0.0,3.0,91,0.00,,,0.00,weatherlink.com 1.10,2013-10-02 08:16:00,
2013-10-02 01:31:00,48.3,46.0,30.21,SSE,168,0.0,1.0,91,0.00,,,0.00,weatherlink.com 1.10,2013-10-02 08:31:00,
2013-10-02 01:46:00,47.9,45.0,30.21,East,95,0.0,2.0,90,0.00,,,0.00,weatherlink.com 1.10,2013-10-02 08:46:00,
2013-10-02 02:01:00,47.1,44.0,30.21,ENE,70,1.0,3.0,90,0.00,,,0.00,weatherlink.com 1.10,2013-10-02 09:01:00,
2013-10-02 02:17:00,47.0,44.0,30.21,East,96,0.0,6.0,90,0.00,,,0.00,weatherlink.com 1.10,2013-10-02 09:17:00,
2013-10-02 02:31:00,47.5,45.0,30.21,ENE,66,1.0,4.0,90,0.00,,,0.00,weatherlink.com 1.10,2013-10-02 09:31:00,
2013-10-02 02:46:00,47.8,45.0,30.21,ENE,65,0.0,1.0,91,0.00,,,0.00,weatherlink.com 1.10,2013-10-02 09:46:00,
2013-10-02 03:02:00,48.5,46.0,30.20,SW,229,2.0,7.0,89,0.00,,,0.00,weatherlink.com 1.10,2013-10-02 10:02:00,
2013-10-02 03:16:00,46.7,44.0,30.20,East,91,0.0,4.0,90,0.00,,,0.00,weatherlink.com 1.10,2013-10-02 10:16:00,
2013-10-02 03:32:00,46.3,44.0,30.20,SW,222,0.0,2.0,90,0.00,,,0.00,weatherlink.com 1.10,2013-10-02 10:32:00,
2013-10-02 03:47:00,45.7,43.0,30.19,ESE,119,1.0,4.0,90,0.00,,,0.00,weatherlink.com 1.10,2013-10-02 10:47:00,
2013-10-02 04:03:00,45.6,43.0,30.19,SE,142,0.0,2.0,90,0.00,,,0.00,weatherlink.com 1.10,2013-10-02 11:03:00,
2013-10-02 04:17:00,45.7,43.0,30.19,SSW,196,0.0,1.0,91,0.00,,,0.00,weatherlink.com 1.10,2013-10-02 11:17:00,
2013-10-02 04:32:00,46.0,43.0,30.19,SW,235,0.0,2.0,89,0.00,,,0.00,weatherlink.com 1.10,2013-10-02 11:32:00,
2013-10-02 04:46:00,45.8,43.0,30.19,SSE,153,0.0,1.0,90,0.00,,,0.00,weatherlink.com 1.10,2013-10-02 11:46:00,
2013-10-02 05:02:00,45.7,43.0,30.18,SSE,153,0.0,0.0,90,0.00,,,0.00,weatherlink.com 1.10,2013-10-02 12:02:00,
2013-10-02 05:17:00,45.3,43.0,30.18,SSE,153,0.0,0.0,91,0.00,,,0.00,weatherlink.com 1.10,2013-10-02 12:17:00,
2013-10-02 05:33:00,45.3,43.0,30.17,East,86,0.0,1.0,91,0.00,,,0.00,weatherlink.com 1.10,2013-10-02 12:33:00,
2013-10-02 05:47:00,45.2,43.0,30.16,SE,134,0.0,1.0,91,0.00,,,0.00,weatherlink.com 1.10,2013-10-02 12:47:00,
2013-10-02 06:03:00,44.9,43.0,30.16,ENE,70,1.0,1.0,92,0.00,,,0.00,weatherlink.com 1.10,2013-10-02 13:03:00,
2013-10-02 06:18:00,44.6,43.0,30.16,ENE,63,3.0,3.0,92,0.00,,,0.00,weatherlink.com 1.10,2013-10-02 13:18:00,
2013-10-02 06:33:00,45.2,43.0,30.16,ENE,74,0.0,4.0,91,0.00,,,0.00,weatherlink.com 1.10,2013-10-02 13:33:00,
2013-10-02 06:48:00,45.3,43.0,30.16,ESE,112,0.0,1.0,90,0.00,,,0.00,weatherlink.com 1.10,2013-10-02 13:48:00,
2013-10-02 07:03:00,44.9,43.0,30.16,SW,214,0.0,1.0,91,0.00,,,0.00,weatherlink.com 1.10,2013-10-02 14:03:00,
2013-10-02 07:18:00,44.8,42.0,30.16,SE,136,0.0,1.0,91,0.00,,,0.00,weatherlink.com 1.10,2013-10-02 14:18:00,
2013-10-02 07:33:00,44.7,42.0,30.16,SE,137,0.0,1.0,91,0.00,,,0.00,weatherlink.com 1.10,2013-10-02 14:33:00,
2013-10-02 07:47:00,44.4,43.0,30.15,East,86,0.0,1.0,93,0.00,,,0.00,weatherlink.com 1.10,2013-10-02 14:47:00,
2013-10-02 08:03:00,44.3,42.0,30.16,ESE,115,1.0,1.0,92,0.00,,,0.00,weatherlink.com 1.10,2013-10-02 15:03:00,
2013-10-02 08:18:00,44.5,42.0,30.16,East,99,0.0,2.0,92,0.00,,,0.00,weatherlink.com 1.10,2013-10-02 15:18:00,
2013-10-02 08:34:00,44.7,43.0,30.16,ESE,107,1.0,2.0,92,0.00,,,0.00,weatherlink.com 1.10,2013-10-02 15:34:00,
2013-10-02 08:49:00,45.4,43.0,30.15,East,90,0.0,2.0,91,0.00,,,0.00,weatherlink.com 1.10,2013-10-02 15:49:00,
2013-10-02 09:04:00,46.9,44.0,30.16,East,89,0.0,3.0,89,0.00,,,0.00,weatherlink.com 1.10,2013-10-02 16:04:00,
2013-10-02 09:19:00,47.3,44.0,30.16,WSW,237,0.0,2.0,87,0.00,,,0.00,weatherlink.com 1.10,2013-10-02 16:19:00,
2013-10-02 09:33:00,47.7,44.0,30.16,ESE,108,0.0,1.0,86,0.00,,,0.00,weatherlink.com 1.10,2013-10-02 16:33:00,
2013-10-02 09:49:00,48.2,45.0,30.15,WSW,242,2.0,2.0,87,0.00,,,0.00,weatherlink.com 1.10,2013-10-02 16:49:00,
2013-10-02 10:04:00,48.5,45.0,30.15,SSW,209,0.0,3.0,86,0.00,,,0.00,weatherlink.com 1.10,2013-10-02 17:04:00,
2013-10-02 10:19:00,49.0,45.0,30.14,West,259,1.0,3.0,85,0.00,,,0.00,weatherlink.com 1.10,2013-10-02 17:19:00,
2013-10-02 10:34:00,49.5,46.0,30.14,West,261,0.0,2.0,86,0.00,,,0.00,weatherlink.com 1.10,2013-10-02 17:34:00,
2013-10-02 10:50:00,50.2,46.0,30.13,NW,319,3.0,6.0,85,0.00,,,0.00,weatherlink.com 1.10,2013-10-02 17:50:00,
2013-10-02 11:05:00,50.7,46.0,30.13,NW,309,6.0,8.0,85,0.00,,,0.00,weatherlink.com 1.10,2013-10-02 18:05:00,
2013-10-02 11:19:00,51.8,47.0,30.12,WNW,284,6.0,11.0,83,0.00,,,0.00,weatherlink.com 1.10,2013-10-02 18:19:00,
2013-10-02 11:35:00,52.3,47.0,30.12,WNW,295,6.0,9.0,82,0.00,,,0.00,weatherlink.com 1.10,2013-10-02 18:35:00,
2013-10-02 11:50:00,52.1,46.0,30.12,West,271,5.0,11.0,80,0.00,,,0.00,weatherlink.com 1.10,2013-10-02 18:50:00,
2013-10-02 12:05:00,52.4,46.0,30.11,NW,305,7.0,12.0,80,0.00,,,0.00,weatherlink.com 1.10,2013-10-02 19:05:00,
2013-10-02 12:21:00,52.6,47.0,30.11,WNW,282,5.0,11.0,82,0.00,,,0.00,weatherlink.com 1.10,2013-10-02 19:21:00,
2013-10-02 12:35:00,53.4,47.0,30.11,WNW,294,4.0,8.0,80,0.00,,,0.00,weatherlink.com 1.10,2013-10-02 19:35:00,
2013-10-02 12:51:00,54.1,48.0,30.10,WNW,291,8.0,9.0,79,0.00,,,0.00,weatherlink.com 1.10,2013-10-02 19:51:00,
2013-10-02 13:05:00,54.6,48.0,30.09,West,267,4.0,8.0,79,0.00,,,0.00,weatherlink.com 1.10,2013-10-02 20:05:00,
2013-10-02 13:20:00,55.9,48.0,30.08,WNW,298,5.0,9.0,74,0.00,,,0.00,weatherlink.com 1.10,2013-10-02 20:20:00,
2013-10-02 13:35:00,56.4,47.0,30.08,WNW,293,7.0,9.0,71,0.00,,,0.00,weatherlink.com 1.10,2013-10-02 20:35:00,
2013-10-02 13:50:00,56.7,48.0,30.07,WNW,295,6.0,11.0,72,0.00,,,0.00,weatherlink.com 1.10,2013-10-02 20:50:00,
2013-10-02 14:05:00,57.0,48.0,30.07,WNW,293,6.0,8.0,71,0.00,,,0.00,weatherlink.com 1.10,2013-10-02 21:05:00,
2013-10-02 14:21:00,57.5,50.0,30.06,WNW,286,6.0,9.0,75,0.00,,,0.00,weatherlink.com 1.10,2013-10-02 21:21:00,
2013-10-02 14:37:00,58.4,48.0,30.06,WNW,296,5.0,10.0,68,0.00,,,0.00,weatherlink.com 1.10,2013-10-02 21:37:00,
2013-10-02 14:51:00,59.3,47.0,30.05,West,276,6.0,13.0,64,0.00,,,0.00,weatherlink.com 1.10,2013-10-02 21:51:00,
2013-10-02 15:06:00,59.1,47.0,30.05,WNW,287,12.0,15.0,64,0.00,,,0.00,weatherlink.com 1.10,2013-10-02 22:06:00,
2013-10-02 15:22:00,59.6,47.0,30.05,NW,305,14.0,15.0,63,0.00,,,0.00,weatherlink.com 1.10,2013-10-02 22:22:00,
2013-10-02 15:36:00,58.4,46.0,30.05,West,277,10.0,20.0,64,0.00,,,0.00,weatherlink.com 1.10,2013-10-02 22:36:00,
2013-10-02 15:52:00,58.2,46.0,30.05,West,276,13.0,19.0,64,0.00,,,0.00,weatherlink.com 1.10,2013-10-02 22:52:00,
2013-10-02 16:07:00,58.0,45.0,30.06,West,278,18.0,22.0,63,0.00,,,0.00,weatherlink.com 1.10,2013-10-02 23:07:00,
2013-10-02 16:22:00,57.0,45.0,30.06,WNW,291,16.0,26.0,65,0.00,,,0.00,weatherlink.com 1.10,2013-10-02 23:22:00,
2013-10-02 16:37:00,56.1,46.0,30.07,WNW,293,21.0,23.0,68,0.00,,,0.00,weatherlink.com 1.10,2013-10-02 23:37:00,
2013-10-02 16:51:00,55.2,47.0,30.07,WNW,289,12.0,28.0,74,0.00,,,0.00,weatherlink.com 1.10,2013-10-02 23:51:00,
2013-10-02 17:07:00,52.7,48.0,30.08,NW,318,11.0,29.0,85,0.01,,,0.01,weatherlink.com 1.10,2013-10-03 00:07:00,
2013-10-02 17:22:00,51.7,47.0,30.09,WNW,300,14.0,20.0,85,0.02,,,0.02,weatherlink.com 1.10,2013-10-03 00:22:00,
2013-10-02 17:38:00,51.4,48.0,30.09,WNW,297,10.0,17.0,88,0.02,,,0.02,weatherlink.com 1.10,2013-10-03 00:38:00,
2013-10-02 17:52:00,52.1,48.0,30.09,WNW,285,11.0,18.0,85,0.02,,,0.02,weatherlink.com 1.10,2013-10-03 00:52:00,
2013-10-02 18:07:00,52.6,47.0,30.09,NW,311,4.0,12.0,80,0.01,,,0.02,weatherlink.com 1.10,2013-10-03 01:07:00,
2013-10-02 18:23:00,53.0,46.0,30.09,NW,309,8.0,17.0,76,0.00,,,0.02,weatherlink.com 1.10,2013-10-03 01:23:00,
2013-10-02 18:37:00,52.9,46.0,30.10,NW,306,2.0,15.0,77,0.00,,,0.02,weatherlink.com 1.10,2013-10-03 01:37:00,
2013-10-02 18:53:00,53.0,47.0,30.10,WNW,290,6.0,9.0,81,0.00,,,0.02,weatherlink.com 1.10,2013-10-03 01:53:00,
2013-10-02 19:08:00,52.8,47.0,30.10,NW,313,3.0,9.0,80,0.00,,,0.02,weatherlink.com 1.10,2013-10-03 02:08:00,
2013-10-02 19:23:00,52.8,47.0,30.10,WNW,292,7.0,8.0,80,0.00,,,0.02,weatherlink.com 1.10,2013-10-03 02:23:00,
2013-10-02 19:38:00,52.6,46.0,30.10,WNW,288,5.0,8.0,77,0.00,,,0.02,weatherlink.com 1.10,2013-10-03 02:38:00,
2013-10-02 19:53:00,52.8,46.0,30.10,WNW,285,5.0,11.0,77,0.00,,,0.02,weatherlink.com 1.10,2013-10-03 02:53:00,
2013-10-02 20:08:00,52.5,45.0,30.10,WNW,285,4.0,8.0,76,0.00,,,0.02,weatherlink.com 1.10,2013-10-03 03:08:00,
2013-10-02 20:22:00,52.4,45.0,30.11,WNW,301,4.0,8.0,77,0.00,,,0.02,weatherlink.com 1.10,2013-10-03 03:22:00,
2013-10-02 20:38:00,52.4,46.0,30.11,WNW,303,9.0,9.0,78,0.00,,,0.02,weatherlink.com 1.10,2013-10-03 03:38:00,
2013-10-02 20:54:00,52.5,47.0,30.11,West,276,7.0,10.0,81,0.00,,,0.02,weatherlink.com 1.10,2013-10-03 03:54:00,
2013-10-02 21:08:00,52.6,47.0,30.12,West,270,3.0,9.0,81,0.00,,,0.02,weatherlink.com 1.10,2013-10-03 04:08:00,
2013-10-02 21:24:00,52.2,47.0,30.12,WSW,257,4.0,10.0,81,0.00,,,0.02,weatherlink.com 1.10,2013-10-03 04:24:00,
2013-10-02 21:38:00,52.0,46.0,30.12,NW,311,9.0,13.0,81,0.00,,,0.02,weatherlink.com 1.10,2013-10-03 04:38:00,
2013-10-02 21:53:00,52.0,47.0,30.13,West,281,6.0,16.0,82,0.00,,,0.02,weatherlink.com 1.10,2013-10-03 04:53:00,
2013-10-02 22:09:00,51.8,47.0,30.13,WNW,293,7.0,13.0,82,0.00,,,0.02,weatherlink.com 1.10,2013-10-03 05:09:00,
2013-10-02 22:23:00,51.7,46.0,30.13,WNW,292,11.0,13.0,80,0.00,,,0.02,weatherlink.com 1.10,2013-10-03 05:23:00,
2013-10-02 22:39:00,51.7,45.0,30.14,WNW,286,13.0,17.0,79,0.00,,,0.02,weatherlink.com 1.10,2013-10-03 05:39:00,
2013-10-02 22:54:00,51.6,45.0,30.14,WNW,299,12.0,20.0,79,0.00,,,0.02,weatherlink.com 1.10,2013-10-03 05:54:00,
2013-10-02 23:10:00,51.5,45.0,30.15,WNW,288,15.0,20.0,78,0.00,,,0.02,weatherlink.com 1.10,2013-10-03 06:10:00,
2013-10-02 23:24:00,51.6,45.0,30.15,West,274,5.0,12.0,79,0.00,,,0.02,weatherlink.com 1.10,2013-10-03 06:24:00,
2013-10-02 23:39:00,51.4,45.0,30.15,West,281,10.0,11.0,79,0.00,,,0.02,weatherlink.com 1.10,2013-10-03 06:39:00,
2013-10-02 23:55:00,51.2,44.0,30.16,NW,313,8.0,14.0,77,0.00,,,0.02,weatherlink.com 1.10,2013-10-03 06:55:00,